DAL1072 KEYW-KATL
Flight info
| Callsign | DAL1072 |
|---|---|
| Flight time | 1h 47m |
| Altitude | 36000 |
| Route | BUFTT1 JAYMC/N0458F380 Q110 DAWWN BEORN HOBTT3 |
| Aircraft | A319/M-SDE3FGHIRWY/LB1 |
Departure
| Time | 2026-05-06 08:34 |
|---|---|
| Airport | Key West International Airport (KEYW) |
Arrival
| Time | 2026-05-06 10:22 |
|---|---|
| Airport | Hartsfield Jackson Atlanta International Airport (KATL) |
| Time | Latitude | Longitude | Altitude | Speed | Heading |
|---|---|---|---|---|---|
| 2026-05-06 08:20 | 24.55437 | -81.75501 | 12 ft | 0 kts | 180° |
| 2026-05-06 08:28 | 24.55444 | -81.75501 | 13 ft | 4 kts | 181° |
| 2026-05-06 08:28 | 24.55470 | -81.75497 | 15 ft | 4 kts | 204° |
| 2026-05-06 08:28 | 24.55488 | -81.75481 | 12 ft | 4 kts | 260° |
| 2026-05-06 08:28 | 24.55489 | -81.75475 | 12 ft | 0 kts | 269° |
| 2026-05-06 08:30 | 24.55489 | -81.75486 | 12 ft | 4 kts | 270° |
| 2026-05-06 08:30 | 24.55511 | -81.75520 | 13 ft | 6 kts | 322° |
| 2026-05-06 08:31 | 24.55530 | -81.75562 | 12 ft | 9 kts | 274° |
| 2026-05-06 08:31 | 24.55529 | -81.75671 | 12 ft | 17 kts | 269° |
| 2026-05-06 08:31 | 24.55528 | -81.75803 | 12 ft | 17 kts | 269° |
| 2026-05-06 08:31 | 24.55525 | -81.75935 | 12 ft | 17 kts | 269° |
| 2026-05-06 08:32 | 24.55524 | -81.76066 | 12 ft | 17 kts | 271° |
| 2026-05-06 08:32 | 24.55526 | -81.76198 | 12 ft | 17 kts | 270° |
| 2026-05-06 08:32 | 24.55527 | -81.76328 | 12 ft | 17 kts | 270° |
| 2026-05-06 08:32 | 24.55521 | -81.76457 | 12 ft | 17 kts | 270° |
| 2026-05-06 08:33 | 24.55521 | -81.76585 | 12 ft | 17 kts | 270° |
| 2026-05-06 08:33 | 24.55526 | -81.76629 | 12 ft | 0 kts | 288° |
| 2026-05-06 08:33 | 24.55530 | -81.76640 | 13 ft | 4 kts | 298° |
| 2026-05-06 08:33 | 24.55573 | -81.76656 | 13 ft | 9 kts | 355° |
| 2026-05-06 08:34 | 24.55605 | -81.76613 | 11 ft | 9 kts | 84° |
| 2026-05-06 08:34 | 24.55620 | -81.75527 | 44 ft | 142 kts | 88° |
| 2026-05-06 08:34 | 24.55686 | -81.74437 | 672 ft | 143 kts | 85° |
| 2026-05-06 08:35 | 24.56094 | -81.73446 | 1298 ft | 149 kts | 45° |
| 2026-05-06 08:35 | 24.57021 | -81.72898 | 1881 ft | 158 kts | 11° |
| 2026-05-06 08:35 | 24.58167 | -81.72807 | 2202 ft | 176 kts | 3° |
| 2026-05-06 08:35 | 24.59464 | -81.72729 | 2511 ft | 198 kts | 3° |
| 2026-05-06 08:36 | 24.60927 | -81.72635 | 2789 ft | 224 kts | 3° |
| 2026-05-06 08:36 | 24.62566 | -81.72528 | 3197 ft | 248 kts | 3° |
| 2026-05-06 08:36 | 24.64364 | -81.72406 | 3709 ft | 267 kts | 3° |
| 2026-05-06 08:36 | 24.66216 | -81.72276 | 4538 ft | 272 kts | 3° |
| 2026-05-06 08:37 | 24.68110 | -81.72141 | 5458 ft | 273 kts | 2° |
| 2026-05-06 08:37 | 24.70002 | -81.71991 | 6404 ft | 273 kts | 6° |
| 2026-05-06 08:37 | 24.71843 | -81.71433 | 7251 ft | 277 kts | 22° |
| 2026-05-06 08:37 | 24.73473 | -81.70289 | 8067 ft | 282 kts | 39° |
| 2026-05-06 08:38 | 24.74849 | -81.68727 | 8874 ft | 286 kts | 45° |
| 2026-05-06 08:38 | 24.76213 | -81.67121 | 9680 ft | 289 kts | 44° |
| 2026-05-06 08:38 | 24.77602 | -81.65496 | 10293 ft | 298 kts | 44° |
| 2026-05-06 08:38 | 24.79083 | -81.63772 | 10496 ft | 321 kts | 44° |
| 2026-05-06 08:39 | 24.80674 | -81.61923 | 10674 ft | 343 kts | 44° |
| 2026-05-06 08:39 | 24.82316 | -81.60012 | 11140 ft | 352 kts | 44° |
| 2026-05-06 08:39 | 24.84013 | -81.58046 | 11764 ft | 356 kts | 43° |
| 2026-05-06 08:39 | 24.85766 | -81.56107 | 12388 ft | 359 kts | 42° |
| 2026-05-06 08:40 | 24.87568 | -81.54176 | 13020 ft | 363 kts | 41° |
| 2026-05-06 08:40 | 24.89397 | -81.52240 | 13657 ft | 366 kts | 41° |
| 2026-05-06 08:40 | 24.91243 | -81.50284 | 14235 ft | 370 kts | 41° |
| 2026-05-06 08:40 | 24.93098 | -81.48305 | 14810 ft | 372 kts | 41° |
| 2026-05-06 08:41 | 24.94958 | -81.46306 | 15371 ft | 375 kts | 41° |
| 2026-05-06 08:41 | 24.96826 | -81.44291 | 15934 ft | 377 kts | 40° |
| 2026-05-06 08:41 | 24.98706 | -81.42264 | 16490 ft | 379 kts | 40° |
| 2026-05-06 08:41 | 25.00591 | -81.40227 | 17030 ft | 381 kts | 40° |
| 2026-05-06 08:42 | 25.02490 | -81.38173 | 17590 ft | 383 kts | 40° |
| 2026-05-06 08:42 | 25.04399 | -81.36105 | 18116 ft | 386 kts | 40° |
| 2026-05-06 08:42 | 25.06294 | -81.34055 | 18586 ft | 388 kts | 39° |
| 2026-05-06 08:42 | 25.08233 | -81.31966 | 19024 ft | 391 kts | 39° |
| 2026-05-06 08:43 | 25.10185 | -81.29862 | 19460 ft | 394 kts | 39° |
| 2026-05-06 08:43 | 25.12151 | -81.27739 | 19896 ft | 397 kts | 40° |
| 2026-05-06 08:43 | 25.14136 | -81.25590 | 20259 ft | 402 kts | 40° |
| 2026-05-06 08:43 | 25.16139 | -81.23417 | 20661 ft | 406 kts | 40° |
| 2026-05-06 08:44 | 25.18161 | -81.21223 | 21068 ft | 409 kts | 40° |
| 2026-05-06 08:44 | 25.20198 | -81.19014 | 21468 ft | 412 kts | 40° |
| 2026-05-06 08:44 | 25.22222 | -81.16816 | 21856 ft | 415 kts | 40° |
| 2026-05-06 08:44 | 25.24310 | -81.14547 | 22248 ft | 418 kts | 40° |
| 2026-05-06 08:45 | 25.26364 | -81.12311 | 22619 ft | 421 kts | 40° |
| 2026-05-06 08:45 | 25.28457 | -81.10032 | 22992 ft | 424 kts | 40° |
| 2026-05-06 08:45 | 25.30566 | -81.07736 | 23348 ft | 427 kts | 40° |
| 2026-05-06 08:45 | 25.32690 | -81.05424 | 23686 ft | 430 kts | 40° |
| 2026-05-06 08:46 | 25.34898 | -81.03195 | 23984 ft | 429 kts | 33° |
| 2026-05-06 08:46 | 25.37393 | -81.01437 | 24307 ft | 425 kts | 23° |
| 2026-05-06 08:46 | 25.40134 | -81.00227 | 24604 ft | 422 kts | 12° |
| 2026-05-06 08:46 | 25.42998 | -80.99605 | 24918 ft | 420 kts | 2° |
| 2026-05-06 08:47 | 25.45911 | -80.99447 | 25240 ft | 420 kts | 359° |
| 2026-05-06 08:47 | 25.48834 | -80.99326 | 25565 ft | 421 kts | 359° |
| 2026-05-06 08:47 | 25.51729 | -80.99203 | 25888 ft | 423 kts | 359° |
| 2026-05-06 08:47 | 25.54672 | -80.99073 | 26211 ft | 424 kts | 359° |
| 2026-05-06 08:48 | 25.57626 | -80.98942 | 26532 ft | 426 kts | 359° |
| 2026-05-06 08:48 | 25.60591 | -80.98812 | 26846 ft | 427 kts | 359° |
| 2026-05-06 08:48 | 25.63568 | -80.98683 | 27165 ft | 429 kts | 359° |
| 2026-05-06 08:48 | 25.66548 | -80.98557 | 27474 ft | 430 kts | 359° |
| 2026-05-06 08:49 | 25.69544 | -80.98429 | 27808 ft | 432 kts | 359° |
| 2026-05-06 08:49 | 25.72551 | -80.98301 | 28100 ft | 433 kts | 359° |
| 2026-05-06 08:49 | 25.75569 | -80.98172 | 28395 ft | 435 kts | 359° |
| 2026-05-06 08:49 | 25.78597 | -80.98043 | 28684 ft | 436 kts | 359° |
| 2026-05-06 08:50 | 25.81595 | -80.97916 | 28978 ft | 438 kts | 359° |
| 2026-05-06 08:50 | 25.84644 | -80.97783 | 29255 ft | 439 kts | 359° |
| 2026-05-06 08:50 | 25.87704 | -80.97649 | 29538 ft | 441 kts | 359° |
| 2026-05-06 08:50 | 25.90768 | -80.97515 | 29815 ft | 442 kts | 359° |
| 2026-05-06 08:51 | 25.93849 | -80.97384 | 30181 ft | 441 kts | 359° |
| 2026-05-06 08:51 | 25.96913 | -80.97251 | 30538 ft | 440 kts | 359° |
| 2026-05-06 08:51 | 25.99958 | -80.97119 | 30916 ft | 438 kts | 358° |
| 2026-05-06 08:51 | 26.02998 | -80.96988 | 31287 ft | 436 kts | 358° |
| 2026-05-06 08:52 | 26.06034 | -80.96857 | 31659 ft | 435 kts | 358° |
| 2026-05-06 08:52 | 26.09046 | -80.96725 | 32031 ft | 433 kts | 358° |
| 2026-05-06 08:52 | 26.12053 | -80.96592 | 32416 ft | 432 kts | 358° |
| 2026-05-06 08:52 | 26.15010 | -80.96461 | 32796 ft | 430 kts | 358° |
| 2026-05-06 08:53 | 26.17995 | -80.96332 | 33174 ft | 428 kts | 358° |
| 2026-05-06 08:53 | 26.20969 | -80.96206 | 33554 ft | 427 kts | 358° |
| 2026-05-06 08:53 | 26.23933 | -80.96080 | 33941 ft | 425 kts | 358° |
| 2026-05-06 08:53 | 26.26886 | -80.95951 | 34293 ft | 424 kts | 358° |
| 2026-05-06 08:54 | 26.29829 | -80.95821 | 34636 ft | 423 kts | 358° |
| 2026-05-06 08:54 | 26.32764 | -80.95690 | 34947 ft | 421 kts | 358° |
| 2026-05-06 08:54 | 26.35689 | -80.95562 | 35269 ft | 420 kts | 358° |
| 2026-05-06 08:54 | 26.38593 | -80.95582 | 35580 ft | 414 kts | 350° |
| 2026-05-06 08:55 | 26.41393 | -80.96162 | 35880 ft | 408 kts | 340° |
| 2026-05-06 08:55 | 26.44028 | -80.97284 | 36032 ft | 404 kts | 331° |
| 2026-05-06 08:55 | 26.46403 | -80.98870 | 36063 ft | 403 kts | 325° |
| 2026-05-06 08:56 | 26.51088 | -81.02326 | 36066 ft | 404 kts | 326° |
| 2026-05-06 08:56 | 26.55789 | -81.05761 | 36065 ft | 404 kts | 326° |
| 2026-05-06 08:57 | 26.60488 | -81.09199 | 36071 ft | 403 kts | 326° |
| 2026-05-06 08:57 | 26.65172 | -81.12637 | 36065 ft | 403 kts | 326° |
| 2026-05-06 08:58 | 26.69822 | -81.16055 | 36069 ft | 403 kts | 325° |
| 2026-05-06 08:58 | 26.74502 | -81.19487 | 36072 ft | 402 kts | 326° |
| 2026-05-06 08:59 | 26.79182 | -81.22928 | 36071 ft | 402 kts | 325° |
| 2026-05-06 08:59 | 26.83859 | -81.26375 | 36071 ft | 402 kts | 325° |
| 2026-05-06 09:00 | 26.88528 | -81.29817 | 36071 ft | 402 kts | 326° |
| 2026-05-06 09:00 | 26.93191 | -81.33259 | 36096 ft | 401 kts | 325° |
| 2026-05-06 09:01 | 26.97805 | -81.36672 | 36095 ft | 399 kts | 325° |
| 2026-05-06 09:01 | 27.02520 | -81.39954 | 36090 ft | 399 kts | 328° |
| 2026-05-06 09:02 | 27.07324 | -81.43079 | 36084 ft | 399 kts | 328° |
| 2026-05-06 09:02 | 27.12120 | -81.46207 | 36084 ft | 398 kts | 328° |
| 2026-05-06 09:03 | 27.16890 | -81.49376 | 36080 ft | 398 kts | 328° |
| 2026-05-06 09:03 | 27.21649 | -81.52560 | 36080 ft | 398 kts | 328° |
| 2026-05-06 09:04 | 27.26406 | -81.55742 | 36097 ft | 398 kts | 327° |
| 2026-05-06 09:04 | 27.31123 | -81.58899 | 36092 ft | 397 kts | 327° |
| 2026-05-06 09:05 | 27.35876 | -81.62076 | 36090 ft | 397 kts | 327° |
| 2026-05-06 09:05 | 27.40623 | -81.65258 | 36086 ft | 397 kts | 327° |
| 2026-05-06 09:06 | 27.45361 | -81.68433 | 36081 ft | 396 kts | 327° |
| 2026-05-06 09:06 | 27.50098 | -81.71604 | 36087 ft | 396 kts | 327° |
| 2026-05-06 09:07 | 27.54825 | -81.74778 | 36088 ft | 395 kts | 327° |
| 2026-05-06 09:07 | 27.59545 | -81.77958 | 36086 ft | 395 kts | 327° |
| 2026-05-06 09:08 | 27.64262 | -81.81129 | 36080 ft | 395 kts | 327° |
| 2026-05-06 09:08 | 27.68951 | -81.84285 | 36080 ft | 395 kts | 327° |
| 2026-05-06 09:09 | 27.72903 | -81.86957 | 36081 ft | 395 kts | 327° |
| 2026-05-06 09:09 | 27.77618 | -81.90145 | 36081 ft | 395 kts | 327° |
| 2026-05-06 09:10 | 27.82331 | -81.93330 | 36081 ft | 395 kts | 327° |
| 2026-05-06 09:10 | 27.87016 | -81.96499 | 36095 ft | 395 kts | 327° |
| 2026-05-06 09:11 | 27.91727 | -81.99687 | 36091 ft | 394 kts | 327° |
| 2026-05-06 09:11 | 27.96433 | -82.02875 | 36088 ft | 394 kts | 327° |
| 2026-05-06 09:12 | 28.01136 | -82.06063 | 36087 ft | 394 kts | 327° |
| 2026-05-06 09:12 | 28.05834 | -82.09256 | 36085 ft | 394 kts | 327° |
| 2026-05-06 09:13 | 28.10489 | -82.12450 | 36081 ft | 394 kts | 326° |
| 2026-05-06 09:13 | 28.15126 | -82.15750 | 36110 ft | 393 kts | 325° |
| 2026-05-06 09:14 | 28.19749 | -82.19068 | 36107 ft | 393 kts | 325° |
| 2026-05-06 09:14 | 28.24371 | -82.22375 | 36105 ft | 393 kts | 325° |
| 2026-05-06 09:15 | 28.28994 | -82.25669 | 36103 ft | 392 kts | 325° |
| 2026-05-06 09:15 | 28.33609 | -82.28965 | 36101 ft | 392 kts | 325° |
| 2026-05-06 09:16 | 28.38195 | -82.32246 | 36091 ft | 392 kts | 325° |
| 2026-05-06 09:16 | 28.42812 | -82.35546 | 36088 ft | 392 kts | 325° |
| 2026-05-06 09:17 | 28.47429 | -82.38851 | 36106 ft | 392 kts | 325° |
| 2026-05-06 09:17 | 28.52039 | -82.42155 | 36107 ft | 391 kts | 324° |
| 2026-05-06 09:18 | 28.56644 | -82.45457 | 36101 ft | 391 kts | 324° |
| 2026-05-06 09:18 | 28.61244 | -82.48760 | 36099 ft | 391 kts | 324° |
| 2026-05-06 09:19 | 28.65835 | -82.52067 | 36099 ft | 391 kts | 324° |
| 2026-05-06 09:19 | 28.70403 | -82.55351 | 36098 ft | 391 kts | 324° |
| 2026-05-06 09:20 | 28.74999 | -82.58663 | 36096 ft | 391 kts | 324° |
| 2026-05-06 09:20 | 28.79592 | -82.61980 | 36109 ft | 390 kts | 324° |
| 2026-05-06 09:21 | 28.84171 | -82.65295 | 36106 ft | 390 kts | 324° |
| 2026-05-06 09:21 | 28.88722 | -82.68585 | 36104 ft | 390 kts | 324° |
| 2026-05-06 09:22 | 28.93302 | -82.71897 | 36100 ft | 390 kts | 324° |
| 2026-05-06 09:22 | 28.97878 | -82.75213 | 36099 ft | 389 kts | 324° |
| 2026-05-06 09:23 | 29.02454 | -82.78528 | 36098 ft | 389 kts | 324° |
| 2026-05-06 09:23 | 29.07027 | -82.81849 | 36114 ft | 389 kts | 323° |
| 2026-05-06 09:24 | 29.11560 | -82.85144 | 36095 ft | 389 kts | 323° |
| 2026-05-06 09:24 | 29.16119 | -82.88459 | 36087 ft | 388 kts | 323° |
| 2026-05-06 09:25 | 29.20672 | -82.91772 | 36083 ft | 388 kts | 323° |
| 2026-05-06 09:25 | 29.25218 | -82.95090 | 36080 ft | 387 kts | 323° |
| 2026-05-06 09:26 | 29.29728 | -82.98390 | 36080 ft | 387 kts | 323° |
| 2026-05-06 09:26 | 29.34264 | -83.01715 | 36072 ft | 387 kts | 323° |
| 2026-05-06 09:27 | 29.38797 | -83.05028 | 36090 ft | 386 kts | 323° |
| 2026-05-06 09:27 | 29.43328 | -83.08341 | 36089 ft | 386 kts | 323° |
| 2026-05-06 09:28 | 29.47848 | -83.11660 | 36084 ft | 386 kts | 323° |
| 2026-05-06 09:28 | 29.52366 | -83.14981 | 36084 ft | 385 kts | 323° |
| 2026-05-06 09:29 | 29.56854 | -83.18275 | 36066 ft | 385 kts | 322° |
| 2026-05-06 09:29 | 29.61370 | -83.21595 | 36077 ft | 385 kts | 322° |
| 2026-05-06 09:30 | 29.65882 | -83.24926 | 36090 ft | 385 kts | 322° |
| 2026-05-06 09:30 | 29.70390 | -83.28251 | 36089 ft | 384 kts | 322° |
| 2026-05-06 09:31 | 29.74886 | -83.31571 | 36078 ft | 384 kts | 322° |
| 2026-05-06 09:31 | 29.79378 | -83.34888 | 36077 ft | 383 kts | 322° |
| 2026-05-06 09:32 | 29.83829 | -83.38186 | 36073 ft | 383 kts | 322° |
| 2026-05-06 09:32 | 29.88320 | -83.41513 | 36069 ft | 383 kts | 322° |
| 2026-05-06 09:33 | 29.92799 | -83.44837 | 36071 ft | 383 kts | 322° |
| 2026-05-06 09:33 | 29.97280 | -83.48167 | 36091 ft | 383 kts | 322° |
| 2026-05-06 09:34 | 30.01759 | -83.51493 | 36086 ft | 383 kts | 322° |
| 2026-05-06 09:34 | 30.06205 | -83.54793 | 36073 ft | 382 kts | 321° |
| 2026-05-06 09:35 | 30.10669 | -83.58123 | 36070 ft | 382 kts | 321° |
| 2026-05-06 09:35 | 30.15142 | -83.61463 | 36068 ft | 382 kts | 321° |
| 2026-05-06 09:36 | 30.19606 | -83.64797 | 36062 ft | 382 kts | 321° |
| 2026-05-06 09:36 | 30.24089 | -83.68116 | 36053 ft | 383 kts | 322° |
| 2026-05-06 09:37 | 30.28548 | -83.71404 | 36068 ft | 382 kts | 321° |
| 2026-05-06 09:37 | 30.33029 | -83.74722 | 36065 ft | 382 kts | 321° |
| 2026-05-06 09:38 | 30.37506 | -83.78040 | 36064 ft | 382 kts | 321° |
| 2026-05-06 09:38 | 30.41976 | -83.81357 | 36062 ft | 382 kts | 321° |
| 2026-05-06 09:39 | 30.46446 | -83.84685 | 36061 ft | 382 kts | 321° |
| 2026-05-06 09:39 | 30.50914 | -83.88017 | 36064 ft | 382 kts | 321° |
| 2026-05-06 09:40 | 30.55349 | -83.91329 | 36058 ft | 382 kts | 321° |
| 2026-05-06 09:40 | 30.62047 | -83.96332 | 36056 ft | 382 kts | 321° |
| 2026-05-06 09:41 | 30.66516 | -83.99671 | 36059 ft | 382 kts | 321° |
| 2026-05-06 09:41 | 30.70989 | -84.03010 | 36061 ft | 382 kts | 321° |
| 2026-05-06 09:42 | 30.75423 | -84.06333 | 36059 ft | 382 kts | 321° |
| 2026-05-06 09:42 | 30.79891 | -84.09688 | 36062 ft | 382 kts | 321° |
| 2026-05-06 09:43 | 30.84358 | -84.13047 | 36087 ft | 382 kts | 321° |
| 2026-05-06 09:43 | 30.88824 | -84.16403 | 36084 ft | 382 kts | 321° |
| 2026-05-06 09:44 | 30.93286 | -84.19761 | 36081 ft | 382 kts | 320° |
| 2026-05-06 09:44 | 30.97746 | -84.23119 | 36060 ft | 382 kts | 321° |
| 2026-05-06 09:45 | 31.02177 | -84.26453 | 36058 ft | 382 kts | 320° |
| 2026-05-06 09:45 | 31.06626 | -84.29816 | 36048 ft | 381 kts | 320° |
| 2026-05-06 09:46 | 31.11080 | -84.33187 | 36045 ft | 382 kts | 320° |
| 2026-05-06 09:46 | 31.15502 | -84.36537 | 36065 ft | 381 kts | 320° |
| 2026-05-06 09:47 | 31.19954 | -84.39902 | 36058 ft | 381 kts | 320° |
| 2026-05-06 09:47 | 31.24397 | -84.43277 | 36053 ft | 381 kts | 320° |
| 2026-05-06 09:48 | 31.28838 | -84.46654 | 36046 ft | 381 kts | 320° |
| 2026-05-06 09:48 | 31.33279 | -84.50028 | 36047 ft | 381 kts | 320° |
| 2026-05-06 09:49 | 31.37726 | -84.53412 | 36046 ft | 381 kts | 320° |
| 2026-05-06 09:49 | 31.42139 | -84.56781 | 36078 ft | 381 kts | 320° |
| 2026-05-06 09:50 | 31.46584 | -84.60174 | 36066 ft | 381 kts | 320° |
| 2026-05-06 09:50 | 31.51399 | -84.62976 | 36058 ft | 390 kts | 328° |
| 2026-05-06 09:51 | 31.56405 | -84.65461 | 36050 ft | 391 kts | 328° |
| 2026-05-06 09:51 | 31.61414 | -84.67941 | 36041 ft | 391 kts | 328° |
| 2026-05-06 09:52 | 31.66378 | -84.70419 | 36039 ft | 391 kts | 328° |
| 2026-05-06 09:52 | 31.71377 | -84.72926 | 36071 ft | 391 kts | 327° |
| 2026-05-06 09:53 | 31.76376 | -84.75442 | 36050 ft | 391 kts | 327° |
| 2026-05-06 09:53 | 31.81384 | -84.77949 | 36049 ft | 391 kts | 328° |
| 2026-05-06 09:54 | 31.86361 | -84.80441 | 36032 ft | 391 kts | 328° |
| 2026-05-06 09:54 | 31.91366 | -84.82955 | 36026 ft | 391 kts | 328° |
| 2026-05-06 09:55 | 31.96398 | -84.85412 | 36022 ft | 392 kts | 328° |
| 2026-05-06 09:55 | 32.01459 | -84.87803 | 36029 ft | 392 kts | 328° |
| 2026-05-06 09:56 | 32.06528 | -84.90211 | 36019 ft | 393 kts | 328° |
| 2026-05-06 09:56 | 32.11561 | -84.92623 | 35993 ft | 393 kts | 328° |
| 2026-05-06 09:57 | 32.16625 | -84.95062 | 35988 ft | 393 kts | 328° |
| 2026-05-06 09:57 | 32.21688 | -84.97501 | 35984 ft | 393 kts | 328° |
| 2026-05-06 09:58 | 32.26758 | -84.99935 | 36009 ft | 393 kts | 328° |
| 2026-05-06 09:58 | 32.31820 | -85.02370 | 36004 ft | 393 kts | 328° |
| 2026-05-06 09:59 | 32.36886 | -85.04805 | 36023 ft | 393 kts | 328° |
| 2026-05-06 09:59 | 32.41917 | -85.07239 | 36016 ft | 393 kts | 328° |
| 2026-05-06 10:00 | 32.46993 | -85.09680 | 36013 ft | 394 kts | 328° |
| 2026-05-06 10:00 | 32.49532 | -85.10905 | 35879 ft | 394 kts | 328° |
| 2026-05-06 10:00 | 32.52069 | -85.12134 | 35634 ft | 394 kts | 328° |
| 2026-05-06 10:01 | 32.54602 | -85.13363 | 35411 ft | 393 kts | 327° |
| 2026-05-06 10:01 | 32.57144 | -85.14603 | 34543 ft | 398 kts | 327° |
| 2026-05-06 10:01 | 32.59712 | -85.15860 | 33617 ft | 402 kts | 328° |
| 2026-05-06 10:01 | 32.62317 | -85.17130 | 32521 ft | 408 kts | 328° |
| 2026-05-06 10:02 | 32.64960 | -85.18415 | 31452 ft | 413 kts | 328° |
| 2026-05-06 10:02 | 32.67634 | -85.19710 | 30412 ft | 417 kts | 329° |
| 2026-05-06 10:02 | 32.70298 | -85.20999 | 29279 ft | 421 kts | 329° |
| 2026-05-06 10:02 | 32.73017 | -85.22315 | 28102 ft | 423 kts | 330° |
| 2026-05-06 10:03 | 32.75744 | -85.23596 | 27074 ft | 421 kts | 334° |
| 2026-05-06 10:03 | 32.78582 | -85.24414 | 26317 ft | 420 kts | 343° |
| 2026-05-06 10:03 | 32.81503 | -85.24633 | 25547 ft | 423 kts | 353° |
| 2026-05-06 10:03 | 32.84438 | -85.24337 | 24769 ft | 421 kts | 357° |
| 2026-05-06 10:04 | 32.87330 | -85.23979 | 24021 ft | 415 kts | 358° |
| 2026-05-06 10:04 | 32.90175 | -85.23627 | 23234 ft | 409 kts | 358° |
| 2026-05-06 10:04 | 32.92986 | -85.23285 | 22497 ft | 402 kts | 358° |
| 2026-05-06 10:04 | 32.94821 | -85.23065 | 22053 ft | 398 kts | 357° |
| 2026-05-06 10:05 | 32.98451 | -85.22524 | 21197 ft | 400 kts | 4° |
| 2026-05-06 10:05 | 33.01143 | -85.21527 | 20570 ft | 413 kts | 15° |
| 2026-05-06 10:05 | 33.03695 | -85.19868 | 19975 ft | 424 kts | 27° |
| 2026-05-06 10:05 | 33.05973 | -85.17563 | 19349 ft | 435 kts | 39° |
| 2026-05-06 10:06 | 33.08039 | -85.14895 | 18758 ft | 438 kts | 40° |
| 2026-05-06 10:06 | 33.10097 | -85.12221 | 18186 ft | 437 kts | 41° |
| 2026-05-06 10:06 | 33.12154 | -85.09543 | 17580 ft | 436 kts | 41° |
| 2026-05-06 10:06 | 33.14193 | -85.06886 | 17028 ft | 433 kts | 41° |
| 2026-05-06 10:07 | 33.16215 | -85.04250 | 16496 ft | 429 kts | 42° |
| 2026-05-06 10:07 | 33.18226 | -85.01637 | 15992 ft | 426 kts | 42° |
| 2026-05-06 10:07 | 33.20226 | -84.99045 | 15461 ft | 422 kts | 43° |
| 2026-05-06 10:07 | 33.22209 | -84.96473 | 14936 ft | 419 kts | 43° |
| 2026-05-06 10:08 | 33.24176 | -84.93915 | 14377 ft | 417 kts | 44° |
| 2026-05-06 10:08 | 33.26127 | -84.91376 | 13815 ft | 415 kts | 44° |
| 2026-05-06 10:08 | 33.28070 | -84.88839 | 13198 ft | 412 kts | 44° |
| 2026-05-06 10:08 | 33.29996 | -84.86320 | 12620 ft | 409 kts | 45° |
| 2026-05-06 10:09 | 33.31907 | -84.83821 | 12024 ft | 405 kts | 44° |
| 2026-05-06 10:09 | 33.33856 | -84.81400 | 11640 ft | 404 kts | 42° |
| 2026-05-06 10:09 | 33.35862 | -84.79046 | 11263 ft | 403 kts | 41° |
| 2026-05-06 10:09 | 33.37881 | -84.76749 | 10901 ft | 398 kts | 40° |
| 2026-05-06 10:10 | 33.39848 | -84.74527 | 10756 ft | 379 kts | 40° |
| 2026-05-06 10:10 | 33.41696 | -84.72420 | 10637 ft | 356 kts | 40° |
| 2026-05-06 10:10 | 33.43432 | -84.70417 | 10446 ft | 339 kts | 41° |
| 2026-05-06 10:10 | 33.45106 | -84.68473 | 10130 ft | 333 kts | 41° |
| 2026-05-06 10:11 | 33.46756 | -84.66551 | 9926 ft | 329 kts | 41° |
| 2026-05-06 10:11 | 33.48384 | -84.64645 | 9804 ft | 326 kts | 41° |
| 2026-05-06 10:11 | 33.49983 | -84.62776 | 9676 ft | 324 kts | 40° |
| 2026-05-06 10:11 | 33.51570 | -84.60874 | 9449 ft | 323 kts | 46° |
| 2026-05-06 10:12 | 33.52805 | -84.58635 | 9098 ft | 323 kts | 63° |
| 2026-05-06 10:12 | 33.53516 | -84.56096 | 8722 ft | 320 kts | 79° |
| 2026-05-06 10:12 | 33.53688 | -84.53460 | 8357 ft | 316 kts | 92° |
| 2026-05-06 10:12 | 33.53679 | -84.50832 | 7987 ft | 314 kts | 91° |
| 2026-05-06 10:13 | 33.53674 | -84.48226 | 7621 ft | 311 kts | 91° |
| 2026-05-06 10:13 | 33.53672 | -84.45638 | 7268 ft | 308 kts | 91° |
| 2026-05-06 10:13 | 33.53674 | -84.43076 | 6907 ft | 306 kts | 91° |
| 2026-05-06 10:13 | 33.53679 | -84.40538 | 6572 ft | 303 kts | 91° |
| 2026-05-06 10:14 | 33.53684 | -84.38022 | 6195 ft | 300 kts | 91° |
| 2026-05-06 10:14 | 33.53685 | -84.35529 | 5853 ft | 298 kts | 91° |
| 2026-05-06 10:14 | 33.53687 | -84.33063 | 5472 ft | 295 kts | 91° |
| 2026-05-06 10:14 | 33.53691 | -84.30609 | 5117 ft | 292 kts | 91° |
| 2026-05-06 10:15 | 33.53695 | -84.28180 | 5042 ft | 291 kts | 92° |
| 2026-05-06 10:15 | 33.53700 | -84.25750 | 5043 ft | 292 kts | 91° |
| 2026-05-06 10:15 | 33.53704 | -84.23330 | 4814 ft | 289 kts | 92° |
| 2026-05-06 10:15 | 33.53739 | -84.20925 | 4361 ft | 289 kts | 86° |
| 2026-05-06 10:16 | 33.54401 | -84.18693 | 4123 ft | 283 kts | 56° |
| 2026-05-06 10:16 | 33.55769 | -84.17163 | 3996 ft | 266 kts | 25° |
| 2026-05-06 10:16 | 33.57482 | -84.16621 | 3786 ft | 249 kts | 354° |
| 2026-05-06 10:16 | 33.59088 | -84.17144 | 3451 ft | 235 kts | 322° |
| 2026-05-06 10:17 | 33.60413 | -84.18263 | 3106 ft | 232 kts | 315° |
| 2026-05-06 10:17 | 33.61681 | -84.19458 | 3026 ft | 232 kts | 312° |
| 2026-05-06 10:17 | 33.62669 | -84.20942 | 3024 ft | 224 kts | 291° |
| 2026-05-06 10:17 | 33.63038 | -84.22087 | 3016 ft | 210 kts | 277° |
| 2026-05-06 10:18 | 33.63168 | -84.24240 | 3019 ft | 185 kts | 264° |
| 2026-05-06 10:18 | 33.63169 | -84.25802 | 3056 ft | 189 kts | 264° |
| 2026-05-06 10:18 | 33.63171 | -84.27377 | 3034 ft | 190 kts | 264° |
| 2026-05-06 10:18 | 33.63173 | -84.28963 | 3005 ft | 190 kts | 264° |
| 2026-05-06 10:19 | 33.63175 | -84.30530 | 2836 ft | 184 kts | 265° |
| 2026-05-06 10:19 | 33.63178 | -84.32025 | 2627 ft | 175 kts | 264° |
| 2026-05-06 10:19 | 33.63180 | -84.33431 | 2408 ft | 162 kts | 265° |
| 2026-05-06 10:19 | 33.63182 | -84.34715 | 2215 ft | 144 kts | 263° |
| 2026-05-06 10:20 | 33.63184 | -84.35853 | 2030 ft | 132 kts | 263° |
| 2026-05-06 10:20 | 33.63183 | -84.36927 | 1866 ft | 126 kts | 262° |
| 2026-05-06 10:20 | 33.63183 | -84.37987 | 1653 ft | 132 kts | 265° |
| 2026-05-06 10:20 | 33.63183 | -84.39066 | 1490 ft | 127 kts | 266° |
| 2026-05-06 10:21 | 33.63183 | -84.40128 | 1322 ft | 128 kts | 265° |
| 2026-05-06 10:21 | 33.63184 | -84.41191 | 1161 ft | 127 kts | 266° |
| 2026-05-06 10:21 | 33.63186 | -84.42240 | 1036 ft | 118 kts | 265° |
| 2026-05-06 10:21 | 33.63182 | -84.43084 | 1038 ft | 66 kts | 270° |
| 2026-05-06 10:22 | 33.63196 | -84.43403 | 1036 ft | 24 kts | 308° |
| 2026-05-06 10:22 | 33.63319 | -84.43428 | 1036 ft | 13 kts | 2° |
| 2026-05-06 10:22 | 33.63361 | -84.43484 | 1036 ft | 8 kts | 289° |
| 2026-05-06 10:22 | 33.63366 | -84.43555 | 1035 ft | 9 kts | 276° |
| 2026-05-06 10:23 | 33.63406 | -84.43612 | 1035 ft | 10 kts | 355° |
| 2026-05-06 10:23 | 33.63483 | -84.43607 | 1035 ft | 11 kts | 2° |
| 2026-05-06 10:23 | 33.63535 | -84.43607 | 1035 ft | 11 kts | 359° |
| 2026-05-06 10:23 | 33.63581 | -84.43667 | 1036 ft | 12 kts | 276° |
| 2026-05-06 10:24 | 33.63616 | -84.43752 | 1036 ft | 12 kts | 330° |
| 2026-05-06 10:24 | 33.63694 | -84.43730 | 1036 ft | 12 kts | 28° |
| 2026-05-06 10:24 | 33.63779 | -84.43723 | 1035 ft | 13 kts | 0° |
| 2026-05-06 10:24 | 33.63861 | -84.43723 | 1035 ft | 7 kts | 1° |
| 2026-05-06 10:25 | 33.63876 | -84.43682 | 1035 ft | 6 kts | 90° |
| 2026-05-06 10:25 | 33.63877 | -84.43648 | 1035 ft | 2 kts | 90° |
| 2026-05-06 10:25 | 33.63877 | -84.43643 | 1035 ft | 0 kts | 90° |